»·PEaware :: NGF6972 KWJF-KSNA

NGF6972 :: KWJF-KSNA

FLIGHT INFORMATION

Flight Status: Arrived
Operator: Unknown
More flights by this operator :: More flights under this callsign
Pilot: Justin A. (23118)
Aircraft: Unknown
(SF50)
More flights by this aircraft type
Origin: KWJF Gen Fox
United States
Destination: KSNA John Wayne-Orange Co
United States
More flights between these airports :: More routes between these airports
Route: +PMD V201 BERRI V459 SLI
File this flight plan on PilotEdge
Remarks:
Altitude:
(Current/Filed)
9,000ft
Speed:
(Current/Filed)
250kts
Departed: 14-Jan-20 12:17 PM
Arrived: 14-Jan-20 12:52 PM
Distance/Time
Traveled:
67nm/0:34
Distance/Time
To Go:
Arrived

Flight Plot

Page will automatically refresh every two minutes.


Map Options




Map Legend


Flown Route
Filed Route
Departure Airport
Arrival Airport
Navaid (VOR, NDB)
Fix

Horizontal Profiles

Position Reports

Time Latitude Longitude Heading Altitude Ground
Speed
14-Jan-20 11:48 34.739070 -118.217232 254 2344ft 0kts
14-Jan-20 11:49 34.739070 -118.217232 254 2344ft 0kts
14-Jan-20 11:50 34.739070 -118.217232 254 2344ft 0kts
14-Jan-20 11:51 34.739070 -118.217232 254 2344ft 0kts
14-Jan-20 11:52 34.739070 -118.217232 254 2344ft 0kts
14-Jan-20 11:53 34.739070 -118.217232 254 2344ft 0kts
14-Jan-20 11:54 34.739070 -118.217232 254 2344ft 0kts
14-Jan-20 11:55 34.739070 -118.217232 254 2344ft 0kts
14-Jan-20 11:56 34.739070 -118.217232 254 2344ft 0kts
14-Jan-20 11:57 34.739070 -118.217232 254 2344ft 0kts
14-Jan-20 11:58 34.739070 -118.217232 254 2344ft 0kts
14-Jan-20 11:59 34.739070 -118.217232 254 2344ft 0kts
14-Jan-20 12:00 34.739070 -118.217232 254 2344ft 0kts
14-Jan-20 12:01 34.739070 -118.217232 254 2344ft 0kts
14-Jan-20 12:02 34.739070 -118.217232 254 2344ft 0kts
14-Jan-20 12:03 34.739070 -118.217232 254 2344ft 0kts
14-Jan-20 12:04 34.739070 -118.217232 254 2344ft 0kts
14-Jan-20 12:05 34.739070 -118.217232 254 2344ft 0kts
14-Jan-20 12:06 34.739070 -118.217232 254 2344ft 0kts
14-Jan-20 12:07 34.739070 -118.217232 254 2344ft 0kts
14-Jan-20 12:08 34.739070 -118.217232 254 2344ft 0kts
14-Jan-20 12:09 34.739591 -118.217527 354 2344ft 11kts
14-Jan-20 12:10 34.741631 -118.212821 74 2340ft 21kts
14-Jan-20 12:11 34.743119 -118.207239 64 2337ft 7kts
14-Jan-20 12:12 34.743630 -118.207149 335 2337ft 0kts
14-Jan-20 12:13 34.743630 -118.207149 335 2337ft 0kts
14-Jan-20 12:14 34.743630 -118.207149 335 2337ft 0kts
14-Jan-20 12:15 34.743630 -118.207149 335 2337ft 0kts
14-Jan-20 12:16 34.737547 -118.230399 258 2675ft 131kts
14-Jan-20 12:17 34.728317 -118.278742 264 3865ft 201kts
14-Jan-20 12:18 34.713134 -118.351612 257 5987ft 240kts
14-Jan-20 12:19 34.696751 -118.432782 258 8090ft 253kts
14-Jan-20 12:20 34.678496 -118.519406 258 9016ft 288kts
14-Jan-20 12:21 34.613803 -118.571641 170 9052ft 332kts
14-Jan-20 12:22 34.550051 -118.492355 124 9062ft 342kts
14-Jan-20 12:23 34.496066 -118.402189 152 9032ft 307kts
14-Jan-20 12:24 34.417778 -118.381197 165 9063ft 284kts
14-Jan-20 12:25 34.343551 -118.351512 163 9067ft 280kts
14-Jan-20 12:26 34.269500 -118.322079 164 9054ft 279kts
14-Jan-20 12:27 34.195843 -118.292464 159 9046ft 279kts
14-Jan-20 12:28 34.125192 -118.251747 155 9052ft 279kts
14-Jan-20 12:29 34.054899 -118.211091 155 8639ft 275kts
14-Jan-20 12:30 33.987011 -118.196777 191 7151ft 246kts
14-Jan-20 12:31 33.926142 -118.208800 191 7032ft 202kts
14-Jan-20 12:32 33.873851 -118.218867 192 7033ft 184kts
14-Jan-20 12:33 33.814891 -118.230594 191 7039ft 246kts
14-Jan-20 12:34 33.742111 -118.246021 192 6482ft 279kts
14-Jan-20 12:35 33.685429 -118.212834 91 5477ft 253kts
14-Jan-20 12:36 33.710503 -118.144909 106 5075ft 226kts
14-Jan-20 12:37 33.701995 -118.073819 60 5059ft 210kts
14-Jan-20 12:38 33.747866 -118.034122 31 5065ft 203kts
14-Jan-20 12:39 33.794990 -117.996710 31 5061ft 203kts
14-Jan-20 12:40 33.842094 -117.959340 31 5059ft 202kts
14-Jan-20 12:41 33.873663 -117.901526 62 4368ft 229kts
14-Jan-20 12:42 33.903123 -117.834017 61 4054ft 218kts
14-Jan-20 12:43 33.930693 -117.770836 61 4059ft 209kts
14-Jan-20 12:44 33.918161 -117.719248 183 3600ft 220kts
14-Jan-20 12:45 33.863275 -117.749393 208 3063ft 215kts
14-Jan-20 12:46 33.811853 -117.782343 208 2935ft 211kts
14-Jan-20 12:47 33.760203 -117.815157 208 1855ft 165kts
14-Jan-20 12:48 33.726192 -117.836828 208 1075ft 133kts
14-Jan-20 12:49 33.695294 -117.856429 208 398ft 122kts
14-Jan-20 12:50 33.671793 -117.871312 208 60ft 52kts
14-Jan-20 12:51 33.668417 -117.871659 222 60ft 20kts
14-Jan-20 12:52 33.666210 -117.872888 13 60ft 0kts
14-Jan-20 12:53 33.666210 -117.872888 13 60ft 0kts
14-Jan-20 12:54 33.666210 -117.872888 13 60ft 0kts
14-Jan-20 12:55 33.666210 -117.872888 13 60ft 0kts
14-Jan-20 12:56 33.666210 -117.872888 13 60ft 0kts
14-Jan-20 12:57 33.666210 -117.872888 13 60ft 0kts
14-Jan-20 12:58 33.666210 -117.872888 13 60ft 0kts
14-Jan-20 12:59 33.666210 -117.872888 13 60ft 0kts
14-Jan-20 13:00 33.666210 -117.872888 13 60ft 0kts
14-Jan-20 13:01 33.666210 -117.872888 13 60ft 0kts
14-Jan-20 13:02 33.666210 -117.872888 13 60ft 0kts
14-Jan-20 13:03 33.666210 -117.872888 13 60ft 0kts
14-Jan-20 13:04 33.666210 -117.872888 13 60ft 0kts
14-Jan-20 13:05 33.666210 -117.872888 13 60ft 0kts

Navigation Log

Ident Type
Flight plan parsing failed, navigation log unavailable